Time;durP1;ratioP1;P1;durP2;ratioP2;P2;SDS_P1;SDS_P2;PMS_P1;PMS_P2;Temp;Humidity;BMP_temperature;BMP_pressure;BME280_temperature;BME280_humidity;BME280_pressure;Samples;Min_cycle;Max_cycle;Signal;HPM_P1;HPM_P2
2022/03/27 00:00:05;;;;;;;30.85;15.90;;;;;;;9.44;100.00;103182.66;5015171;28;20144;-48
2022/03/27 00:02:31;;;;;;;33.65;16.40;;;;;;;9.44;100.00;103185.31;5014848;28;20464;-48
2022/03/27 00:04:56;;;;;;;26.85;14.15;;;;;;;9.45;100.00;103180.84;5015075;28;20025;-46
2022/03/27 00:07:21;;;;;;;19.35;8.32;;;;;;;9.37;100.00;103180.44;5002385;28;20106;-45
2022/03/27 00:09:47;;;;;;;18.52;7.32;;;;;;;9.28;100.00;103179.22;5012603;28;20072;-49
2022/03/27 00:12:12;;;;;;;20.88;7.40;;;;;;;9.22;100.00;103175.13;5012248;28;20029;-47
2022/03/27 00:14:37;;;;;;;17.67;7.22;;;;;;;9.15;100.00;103181.81;5003078;28;20423;-46
2022/03/27 00:17:03;;;;;;;14.88;7.18;;;;;;;9.12;100.00;103173.97;5004203;28;20131;-50
2022/03/27 00:19:28;;;;;;;19.15;7.07;;;;;;;9.08;100.00;103176.00;5008321;28;20029;-45
2022/03/27 00:21:53;;;;;;;12.73;7.45;;;;;;;9.09;100.00;103176.84;4994997;28;20196;-45
2022/03/27 00:24:19;;;;;;;15.52;8.32;;;;;;;9.08;100.00;103181.31;5001713;28;20029;-47
2022/03/27 00:26:44;;;;;;;20.88;11.82;;;;;;;9.09;100.00;103180.34;5007897;28;20040;-46
2022/03/27 00:29:10;;;;;;;28.38;12.30;;;;;;;9.09;100.00;103177.69;4993407;28;20092;-47
2022/03/27 00:31:37;;;;;;;53.35;25.00;;;;;;;9.07;100.00;103176.06;5012050;28;20044;-46
2022/03/27 00:34:04;;;;;;;68.68;30.23;;;;;;;9.04;100.00;103181.59;5011728;28;20108;-45
2022/03/27 00:36:30;;;;;;;51.88;22.92;;;;;;;9.04;100.00;103179.78;5012873;28;20308;-47
2022/03/27 00:38:55;;;;;;;62.80;30.02;;;;;;;9.01;100.00;103174.63;5013323;28;21099;-47
2022/03/27 00:41:23;;;;;;;39.33;18.50;;;;;;;8.98;100.00;103176.63;5013128;28;20423;-47
2022/03/27 00:43:48;;;;;;;30.05;13.25;;;;;;;8.94;100.00;103173.28;5012542;28;20026;-49
2022/03/27 00:46:14;;;;;;;23.38;10.32;;;;;;;8.90;100.00;103171.78;5002384;28;20408;-46
2022/03/27 00:48:39;;;;;;;20.30;10.38;;;;;;;8.90;100.00;103174.44;5013462;28;20266;-45
2022/03/27 00:51:04;;;;;;;16.50;8.52;;;;;;;8.88;100.00;103173.69;5004587;28;20476;-50
2022/03/27 00:53:30;;;;;;;20.55;8.80;;;;;;;8.81;100.00;103173.19;5002097;28;20217;-48
2022/03/27 00:55:55;;;;;;;15.82;8.77;;;;;;;8.77;100.00;103171.63;5008010;28;20532;-46
2022/03/27 00:58:21;;;;;;;15.98;8.25;;;;;;;8.74;100.00;103178.03;5013308;28;20717;-48
2022/03/27 01:00:47;;;;;;;15.73;7.97;;;;;;;8.73;100.00;103175.44;5012218;28;20036;-47
2022/03/27 01:03:14;;;;;;;15.67;7.43;;;;;;;8.67;100.00;103170.47;5000054;28;20022;-49
2022/03/27 01:05:40;;;;;;;18.10;7.80;;;;;;;8.64;100.00;103173.31;4993172;28;20269;-44
2022/03/27 01:08:07;;;;;;;20.95;7.75;;;;;;;8.56;100.00;103173.78;4992935;28;20502;-45
2022/03/27 01:10:34;;;;;;;18.08;7.25;;;;;;;8.47;100.00;103169.84;4995843;28;20041;-47
2022/03/27 01:13:04;;;;;;;13.20;7.00;;;;;;;8.48;100.00;103168.91;5010889;28;20464;-46
2022/03/27 01:15:33;;;;;;;16.20;7.40;;;;;;;8.44;100.00;103167.38;5011935;28;20505;-46
2022/03/27 01:17:59;;;;;;;20.48;7.28;;;;;;;8.47;100.00;103174.31;5010537;28;20021;-46
2022/03/27 01:20:36;;;;;;;12.77;7.10;;;;;;;8.43;100.00;103164.78;5009772;28;20056;-44
2022/03/27 01:23:07;;;;;;;13.77;7.65;;;;;;;8.37;100.00;103169.50;4992114;28;20360;-45
2022/03/27 01:25:33;;;;;;;14.57;7.72;;;;;;;8.34;100.00;103166.16;5002587;28;20030;-46
2022/03/27 01:27:58;;;;;;;16.75;7.47;;;;;;;8.32;100.00;103165.41;5000236;28;20363;-46
2022/03/27 01:30:23;;;;;;;16.70;8.18;;;;;;;8.27;100.00;103165.66;4992771;28;20125;-47
2022/03/27 01:32:51;;;;;;;13.88;7.10;;;;;;;8.26;100.00;103166.59;5006385;28;20029;-46
2022/03/27 01:35:17;;;;;;;14.55;7.43;;;;;;;8.20;100.00;103165.16;5010560;28;20022;-47
2022/03/27 01:37:42;;;;;;;14.70;8.43;;;;;;;8.16;100.00;103162.75;5012254;28;20038;-48
2022/03/27 01:40:08;;;;;;;15.10;8.05;;;;;;;8.10;100.00;103161.31;5011391;28;20108;-47
2022/03/27 01:42:33;;;;;;;15.82;7.55;;;;;;;8.09;100.00;103161.38;4999883;28;20033;-50
2022/03/27 01:44:58;;;;;;;17.63;8.20;;;;;;;8.09;100.00;103162.25;4990634;28;20260;-43
2022/03/27 01:47:23;;;;;;;16.80;8.15;;;;;;;8.08;100.00;103165.88;4991837;28;20448;-44
2022/03/27 01:49:49;;;;;;;14.02;8.30;;;;;;;8.15;100.00;103161.06;4993236;28;20045;-46
2022/03/27 01:52:15;;;;;;;12.40;7.53;;;;;;;8.20;100.00;103157.16;5006776;28;20041;-45
2022/03/27 01:54:41;;;;;;;13.95;7.40;;;;;;;8.24;100.00;103157.84;5001585;28;20565;-45
2022/03/27 01:57:06;;;;;;;13.88;8.95;;;;;;;8.25;100.00;103164.00;5000180;28;20055;-49
2022/03/27 01:59:33;;;;;;;14.15;9.10;;;;;;;8.29;100.00;103163.75;5012204;28;20017;-47
2022/03/27 02:01:59;;;;;;;15.25;9.48;;;;;;;8.36;100.00;103154.47;5001826;28;20704;-47
2022/03/27 02:04:24;;;;;;;16.88;9.80;;;;;;;8.44;100.00;103164.72;5003382;28;20026;-48
2022/03/27 02:06:49;;;;;;;15.75;9.40;;;;;;;8.52;100.00;103159.78;5013021;28;20037;-45
2022/03/27 02:09:15;;;;;;;18.13;10.35;;;;;;;8.52;100.00;103157.13;5008082;28;20030;-49
2022/03/27 02:11:41;;;;;;;15.70;10.15;;;;;;;8.56;100.00;103158.66;5011302;28;20060;-45
2022/03/27 02:14:06;;;;;;;19.08;11.57;;;;;;;8.56;100.00;103161.31;5011499;28;20032;-45
2022/03/27 02:16:31;;;;;;;17.95;11.38;;;;;;;8.58;100.00;103164.75;5014978;28;20045;-46
2022/03/27 02:18:57;;;;;;;19.98;12.43;;;;;;;8.60;100.00;103164.66;5016177;28;20041;-46
2022/03/27 02:21:22;;;;;;;19.05;11.45;;;;;;;8.63;100.00;103161.81;5015303;28;20026;-45
2022/03/27 02:23:47;;;;;;;18.27;12.10;;;;;;;8.63;100.00;103168.94;5015400;28;20388;-47
2022/03/27 02:26:13;;;;;;;21.05;11.57;;;;;;;8.70;100.00;103164.97;5014064;28;20089;-47
2022/03/27 02:28:40;;;;;;;20.77;11.90;;;;;;;8.71;100.00;103167.53;4996956;28;20029;-45
2022/03/27 02:31:05;;;;;;;20.60;12.50;;;;;;;8.71;100.00;103172.88;5007014;28;20044;-46
2022/03/27 02:33:31;;;;;;;21.02;12.23;;;;;;;8.74;100.00;103175.34;5016159;28;20021;-45
2022/03/27 02:35:56;;;;;;;19.13;12.98;;;;;;;8.74;100.00;103161.16;5012131;28;20045;-46
2022/03/27 02:38:22;;;;;;;21.50;12.50;;;;;;;8.77;100.00;103161.88;5001300;28;20373;-47
2022/03/27 02:40:47;;;;;;;15.98;11.43;;;;;;;8.82;100.00;103166.03;5015908;28;20422;-49
2022/03/27 02:43:13;;;;;;;18.02;11.85;;;;;;;8.82;100.00;103161.56;5015333;28;20669;-45
2022/03/27 02:45:39;;;;;;;19.17;12.07;;;;;;;8.82;100.00;103160.72;5014477;28;20029;-48
2022/03/27 02:48:05;;;;;;;18.23;11.30;;;;;;;8.85;100.00;103164.03;5000227;28;20038;-48
2022/03/27 02:50:31;;;;;;;15.80;11.07;;;;;;;8.80;100.00;103160.81;4992959;28;20085;-48
2022/03/27 02:52:58;;;;;;;16.23;10.10;;;;;;;8.83;100.00;103165.09;4994905;28;20081;-46
2022/03/27 02:55:24;;;;;;;13.00;9.68;;;;;;;8.82;100.00;103152.72;4995280;28;20038;-44
2022/03/27 02:57:50;;;;;;;16.30;10.38;;;;;;;8.80;100.00;103155.47;5007256;28;20098;-45
2022/03/27 03:00:16;;;;;;;16.73;10.77;;;;;;;8.86;100.00;103163.09;5005936;28;20045;-46
2022/03/27 03:02:42;;;;;;;15.88;10.40;;;;;;;8.88;100.00;103158.53;4996342;28;20092;-46
2022/03/27 03:05:08;;;;;;;15.55;10.38;;;;;;;8.89;100.00;103164.72;5012858;28;20026;-46
2022/03/27 03:07:33;;;;;;;16.27;9.90;;;;;;;8.84;100.00;103159.69;5013567;28;20396;-48
2022/03/27 03:10:01;;;;;;;15.70;10.48;;;;;;;8.85;100.00;103158.72;5005869;28;20037;-45
2022/03/27 03:12:26;;;;;;;14.90;10.80;;;;;;;8.88;100.00;103157.69;4998739;28;20421;-48
2022/03/27 03:14:55;;;;;;;15.60;10.55;;;;;;;8.83;100.00;103149.97;4993269;28;20296;-49
2022/03/27 03:17:21;;;;;;;16.83;10.85;;;;;;;8.81;100.00;103154.53;4994006;28;20400;-48
2022/03/27 03:19:46;;;;;;;14.63;10.55;;;;;;;8.81;100.00;103146.53;4995185;28;20435;-48
2022/03/27 03:22:12;;;;;;;16.85;11.00;;;;;;;8.81;100.00;103148.31;4986038;28;20046;-44
2022/03/27 03:24:37;;;;;;;17.23;11.02;;;;;;;8.85;100.00;103149.88;5012680;28;20079;-46
2022/03/27 03:27:03;;;;;;;15.07;10.90;;;;;;;8.84;100.00;103140.16;5010251;28;20048;-47
2022/03/27 03:29:28;;;;;;;17.27;11.75;;;;;;;8.87;100.00;103150.63;4995920;28;20026;-46
2022/03/27 03:31:54;;;;;;;18.27;11.80;;;;;;;8.86;100.00;103140.91;5005008;28;20494;-47
2022/03/27 03:34:19;;;;;;;21.80;12.43;;;;;;;8.86;100.00;103143.56;5014834;28;20068;-50
2022/03/27 03:36:44;;;;;;;20.42;12.23;;;;;;;8.87;100.00;103148.81;5008327;28;20049;-48
2022/03/27 03:39:10;;;;;;;19.05;12.00;;;;;;;8.87;100.00;103154.16;5014426;28;20067;-45
2022/03/27 03:41:36;;;;;;;17.85;11.68;;;;;;;8.89;100.00;103140.72;5014437;28;20427;-47
2022/03/27 03:44:01;;;;;;;19.52;12.43;;;;;;;8.90;100.00;103139.78;4996882;28;20055;-42
2022/03/27 03:46:26;;;;;;;17.17;11.63;;;;;;;8.91;100.00;103145.03;4992913;28;20046;-44
2022/03/27 03:48:52;;;;;;;19.63;12.18;;;;;;;8.91;100.00;103144.16;5004705;28;20032;-43
2022/03/27 03:51:17;;;;;;;18.98;12.73;;;;;;;8.85;100.00;103142.72;5014061;28;20373;-44
2022/03/27 03:53:43;;;;;;;18.40;12.15;;;;;;;8.77;100.00;103139.66;5013662;28;20474;-47
2022/03/27 03:56:08;;;;;;;19.85;12.45;;;;;;;8.74;100.00;103135.41;5013851;28;20033;-45
2022/03/27 03:58:33;;;;;;;19.23;12.98;;;;;;;8.67;100.00;103135.84;5015080;28;20041;-47
2022/03/27 04:00:59;;;;;;;20.13;13.38;;;;;;;8.64;100.00;103139.56;5012991;28;20439;-46
2022/03/27 04:03:24;;;;;;;20.80;13.90;;;;;;;8.62;100.00;103133.44;4994883;28;20026;-45
2022/03/27 04:05:49;;;;;;;20.00;13.40;;;;;;;8.63;100.00;103137.84;5002483;28;20388;-45
2022/03/27 04:08:14;;;;;;;20.15;13.40;;;;;;;8.66;100.00;103140.31;5001906;28;20069;-45
2022/03/27 04:10:41;;;;;;;21.02;13.95;;;;;;;8.67;100.00;103141.16;5012451;28;20025;-46
2022/03/27 04:13:07;;;;;;;20.23;13.63;;;;;;;8.65;100.00;103143.06;5012871;28;20502;-48
2022/03/27 04:15:32;;;;;;;20.27;13.57;;;;;;;8.62;100.00;103138.78;5006542;28;20018;-47
2022/03/27 04:18:00;;;;;;;20.40;14.27;;;;;;;8.60;100.00;103143.34;4994629;28;20032;-48
2022/03/27 04:20:25;;;;;;;19.73;14.40;;;;;;;8.57;100.00;103140.84;4993322;28;20054;-47
2022/03/27 04:22:51;;;;;;;23.30;15.23;;;;;;;8.50;100.00;103137.72;5010748;28;20768;-47
2022/03/27 04:25:16;;;;;;;20.55;14.18;;;;;;;8.56;100.00;103131.16;5013097;28;20048;-44
2022/03/27 04:27:41;;;;;;;23.33;16.02;;;;;;;8.57;100.00;103136.41;5013179;28;20025;-45
2022/03/27 04:30:09;;;;;;;24.45;15.65;;;;;;;8.62;100.00;103151.25;5012857;28;20033;-45
2022/03/27 04:32:34;;;;;;;22.13;15.15;;;;;;;8.63;100.00;103139.66;4998869;28;20033;-45
2022/03/27 04:35:00;;;;;;;25.42;16.08;;;;;;;8.62;100.00;103143.25;4993754;28;20509;-48
2022/03/27 04:37:26;;;;;;;24.25;15.57;;;;;;;8.61;100.00;103144.22;4992436;28;20057;-47
2022/03/27 04:39:51;;;;;;;21.73;15.38;;;;;;;8.58;100.00;103146.09;4996486;28;20029;-48
2022/03/27 04:42:16;;;;;;;23.23;15.63;;;;;;;8.56;100.00;103144.50;5001909;28;20140;-45
2022/03/27 04:44:41;;;;;;;25.88;16.25;;;;;;;8.56;100.00;103153.31;5013205;28;20609;-49
2022/03/27 04:47:07;;;;;;;24.70;16.38;;;;;;;8.55;100.00;103148.09;4998422;28;20451;-46
2022/03/27 04:49:32;;;;;;;26.33;16.83;;;;;;;8.52;100.00;103146.47;5008558;28;20497;-46
2022/03/27 04:51:58;;;;;;;24.65;16.23;;;;;;;8.53;100.00;103142.84;4997410;28;20510;-48
2022/03/27 04:54:24;;;;;;;27.52;16.35;;;;;;;8.57;100.00;103143.53;5003764;28;20040;-47
2022/03/27 04:56:49;;;;;;;24.90;16.63;;;;;;;8.54;100.00;103149.06;4999963;28;20032;-45
2022/03/27 04:59:14;;;;;;;26.08;15.60;;;;;;;8.47;100.00;103150.34;5013677;28;20041;-47
2022/03/27 05:01:41;;;;;;;25.58;15.90;;;;;;;8.38;100.00;103154.38;5012502;28;20021;-48
2022/03/27 05:04:06;;;;;;;25.00;16.00;;;;;;;8.31;100.00;103147.69;5013349;28;20033;-47
2022/03/27 05:06:32;;;;;;;25.02;15.48;;;;;;;8.24;100.00;103151.66;5011356;28;20429;-44
2022/03/27 05:09:00;;;;;;;24.58;15.70;;;;;;;8.21;100.00;103150.91;5013049;28;20075;-46
2022/03/27 05:11:28;;;;;;;25.33;15.45;;;;;;;8.28;100.00;103162.06;5012216;28;20299;-45
2022/03/27 05:13:53;;;;;;;27.02;16.38;;;;;;;8.21;100.00;103158.91;5004046;28;20619;-46
2022/03/27 05:16:19;;;;;;;27.35;16.17;;;;;;;8.19;100.00;103163.41;5003888;28;20053;-44
2022/03/27 05:18:44;;;;;;;26.23;16.10;;;;;;;8.21;100.00;103166.00;4994026;28;20536;-47
2022/03/27 05:21:09;;;;;;;29.50;17.30;;;;;;;8.19;100.00;103166.09;5010687;28;20345;-47
2022/03/27 05:23:35;;;;;;;27.42;16.05;;;;;;;8.16;100.00;103157.44;4996883;28;20083;-43
2022/03/27 05:26:00;;;;;;;24.85;15.73;;;;;;;8.17;100.00;103168.00;5010990;28;20029;-44
2022/03/27 05:28:26;;;;;;;21.75;14.20;;;;;;;8.15;100.00;103166.38;5013173;28;20036;-44
2022/03/27 05:30:51;;;;;;;23.42;15.57;;;;;;;8.09;100.00;103164.91;4992446;28;20034;-47
2022/03/27 05:33:17;;;;;;;27.40;16.80;;;;;;;8.03;100.00;103162.59;4991586;28;20061;-46
2022/03/27 05:35:42;;;;;;;25.38;15.25;;;;;;;8.00;100.00;103163.63;4992618;28;20122;-48
2022/03/27 05:38:07;;;;;;;24.80;15.60;;;;;;;8.01;100.00;103172.47;4992069;28;20136;-44
2022/03/27 05:40:33;;;;;;;24.33;14.77;;;;;;;7.94;100.00;103161.34;4993192;28;20034;-45
2022/03/27 05:42:58;;;;;;;24.17;15.77;;;;;;;7.92;100.00;103168.53;5002471;28;20093;-44
2022/03/27 05:45:24;;;;;;;24.85;15.70;;;;;;;7.92;100.00;103163.19;5009578;28;20413;-43
2022/03/27 05:47:50;;;;;;;23.92;14.45;;;;;;;7.97;100.00;103169.13;4998497;28;20514;-44
2022/03/27 05:50:18;;;;;;;24.30;15.38;;;;;;;7.98;100.00;103167.34;5013176;28;20794;-45
2022/03/27 05:52:44;;;;;;;22.60;15.00;;;;;;;7.99;100.00;103169.03;5010959;28;20030;-46
2022/03/27 05:55:12;;;;;;;26.27;14.40;;;;;;;8.01;100.00;103178.66;5013799;28;20110;-45
2022/03/27 05:57:37;;;;;;;24.58;14.68;;;;;;;8.01;100.00;103177.78;5004889;28;20033;-46
2022/03/27 06:00:05;;;;;;;25.25;14.65;;;;;;;8.05;100.00;103186.47;4995456;28;20483;-44
2022/03/27 06:02:31;;;;;;;23.23;13.73;;;;;;;8.03;100.00;103190.06;5014705;28;20120;-45
2022/03/27 06:04:56;;;;;;;20.58;13.00;;;;;;;8.03;100.00;103192.72;4996707;28;20156;-44
2022/03/27 06:07:22;;;;;;;21.50;12.95;;;;;;;8.02;100.00;103187.50;4995158;28;20409;-46
2022/03/27 06:09:47;;;;;;;23.70;13.52;;;;;;;8.02;100.00;103192.81;4997067;28;20101;-45
2022/03/27 06:12:14;;;;;;;23.88;13.88;;;;;;;8.00;100.00;103184.91;4994644;28;20080;-43
2022/03/27 06:14:39;;;;;;;21.10;13.48;;;;;;;8.05;100.00;103195.31;5009880;28;20025;-49
2022/03/27 06:17:05;;;;;;;27.25;14.63;;;;;;;8.09;100.00;103196.00;5014894;28;20396;-45
2022/03/27 06:19:30;;;;;;;23.50;13.40;;;;;;;8.12;100.00;103202.00;5015512;28;20527;-47
2022/03/27 06:21:59;;;;;;;23.40;13.10;;;;;;;8.06;100.00;103205.00;5007981;28;20029;-45
2022/03/27 06:24:25;;;;;;;23.75;12.27;;;;;;;8.00;100.00;103208.00;5014639;28;20338;-47
2022/03/27 06:26:51;;;;;;;22.35;12.30;;;;;;;7.94;100.00;103206.56;5015458;28;20108;-47
2022/03/27 06:29:16;;;;;;;27.92;13.35;;;;;;;7.93;100.00;103206.66;5015638;28;20449;-50
2022/03/27 06:31:41;;;;;;;27.67;13.90;;;;;;;7.95;100.00;103204.75;5011803;28;20317;-49
2022/03/27 06:34:07;;;;;;;31.25;14.10;;;;;;;7.98;100.00;103201.94;4999767;28;20033;-50
2022/03/27 06:36:34;;;;;;;27.83;13.45;;;;;;;8.01;100.00;103205.28;4994805;28;20386;-44
2022/03/27 06:39:00;;;;;;;35.15;14.48;;;;;;;8.02;100.00;103211.44;4995906;28;20244;-44
2022/03/27 06:41:25;;;;;;;30.23;15.10;;;;;;;8.06;100.00;103204.13;4995511;28;20029;-50
2022/03/27 06:43:50;;;;;;;33.22;14.63;;;;;;;8.06;100.00;103198.81;5014489;28;20108;-48
2022/03/27 06:46:17;;;;;;;29.30;14.90;;;;;;;8.12;100.00;103206.47;5013695;28;20399;-47
2022/03/27 06:48:45;;;;;;;30.73;15.52;;;;;;;8.11;100.00;103210.06;5016321;28;20219;-45
2022/03/27 06:51:11;;;;;;;35.95;16.17;;;;;;;8.05;100.00;103200.63;5013566;28;20527;-45
2022/03/27 06:53:36;;;;;;;34.33;15.65;;;;;;;8.09;100.00;103198.66;5015836;28;20075;-49
2022/03/27 06:56:02;;;;;;;32.75;16.10;;;;;;;8.19;100.00;103200.69;5014053;28;20029;-45
2022/03/27 06:58:27;;;;;;;36.53;16.45;;;;;;;8.30;100.00;103205.41;5004420;28;20021;-49
2022/03/27 07:03:36;;;;;;;36.35;16.63;;;;;;;8.28;100.00;103209.09;5015014;28;20052;-47
2022/03/27 07:06:02;;;;;;;33.13;15.88;;;;;;;8.29;100.00;103214.34;5012059;28;20033;-49
2022/03/27 07:08:27;;;;;;;29.00;14.85;;;;;;;8.33;100.00;103215.03;5014201;28;20030;-49
2022/03/27 07:10:52;;;;;;;28.63;15.00;;;;;;;8.37;100.00;103220.09;5014573;28;20514;-47
2022/03/27 07:13:19;;;;;;;35.10;15.02;;;;;;;8.40;100.00;103213.72;5007747;28;20053;-48
2022/03/27 07:15:46;;;;;;;32.95;15.85;;;;;;;8.42;100.00;103211.84;4993742;28;20026;-47
2022/03/27 07:18:13;;;;;;;31.25;15.35;;;;;;;8.49;100.00;103210.56;4998982;28;20124;-44
2022/03/27 07:20:44;;;;;;;29.10;15.45;;;;;;;8.52;100.00;103213.06;5012994;28;20029;-48
2022/03/27 07:23:11;;;;;;;;;;;;;;;8.69;100.00;103205.88;4997773;28;20041;-47
2022/03/27 07:25:39;;;;;;;32.50;15.45;;;;;;;8.74;100.00;103209.13;4993876;28;20016;-47
2022/03/27 07:28:06;;;;;;;33.60;16.50;;;;;;;8.80;100.00;103211.44;4996492;28;20031;-48
2022/03/27 07:30:32;;;;;;;30.95;15.75;;;;;;;8.86;100.00;103205.75;5007020;28;20545;-48
2022/03/27 07:32:58;;;;;;;30.80;15.43;;;;;;;8.91;100.00;103210.78;5003566;28;20132;-45
2022/03/27 07:35:25;;;;;;;32.53;16.45;;;;;;;8.89;100.00;103202.03;4994264;28;20523;-48
2022/03/27 07:37:52;;;;;;;31.30;15.50;;;;;;;8.86;100.00;103202.19;4993450;28;20056;-46
2022/03/27 07:40:18;;;;;;;31.10;15.48;;;;;;;8.87;100.00;103201.25;5012433;28;20481;-48
2022/03/27 07:42:49;;;;;;;31.65;15.82;;;;;;;8.90;100.00;103201.94;5012075;28;20384;-44
2022/03/27 07:45:15;;;;;;;37.67;17.27;;;;;;;8.98;100.00;103205.94;5001040;28;20026;-46
2022/03/27 07:47:41;;;;;;;33.97;17.23;;;;;;;9.06;100.00;103201.00;4994566;28;20120;-49
2022/03/27 07:50:07;;;;;;;33.55;16.15;;;;;;;9.12;100.00;103204.16;5005502;28;20393;-44
2022/03/27 07:52:35;;;;;;;32.95;15.80;;;;;;;9.10;100.00;103208.72;5009638;28;20112;-46
2022/03/27 07:55:00;;;;;;;30.52;15.75;;;;;;;9.15;100.00;103208.47;5001170;28;20542;-47
2022/03/27 07:57:27;;;;;;;33.60;16.33;;;;;;;9.20;100.00;103202.81;5004493;28;20428;-47
2022/03/27 07:59:52;;;;;;;34.40;15.57;;;;;;;9.24;100.00;103207.88;5005331;28;20017;-45
2022/03/27 08:02:18;;;;;;;29.77;13.93;;;;;;;9.20;100.00;103205.50;5010619;28;20021;-48
2022/03/27 08:04:44;;;;;;;26.38;14.52;;;;;;;9.28;100.00;103205.88;5005706;28;20087;-45
2022/03/27 08:07:10;;;;;;;26.20;14.07;;;;;;;9.37;100.00;103207.13;5012068;28;20508;-46
2022/03/27 08:09:36;;;;;;;29.38;13.50;;;;;;;9.54;100.00;103212.28;5010864;28;20447;-48
2022/03/27 08:12:01;;;;;;;25.65;13.05;;;;;;;9.63;100.00;103209.03;5010871;28;20040;-46
2022/03/27 08:14:31;;;;;;;23.73;13.10;;;;;;;9.76;100.00;103216.25;5013004;28;20408;-44
2022/03/27 08:16:59;;;;;;;25.00;13.63;;;;;;;9.76;100.00;103205.56;5011540;28;20048;-43
2022/03/27 08:19:25;;;;;;;24.35;13.93;;;;;;;9.67;100.00;103210.56;5010189;28;20030;-50
2022/03/27 08:21:50;;;;;;;22.42;13.10;;;;;;;9.62;100.00;103206.44;5009626;28;20116;-46
2022/03/27 08:24:16;;;;;;;23.95;12.98;;;;;;;9.67;100.00;103212.34;4995677;28;20255;-45
2022/03/27 08:26:56;;;;;;;22.23;13.23;;;;;;;9.64;100.00;103207.19;5001470;28;20026;-47
2022/03/27 08:29:41;;;;;;;25.75;13.38;;;;;;;9.70;100.00;103204.16;5005914;28;20040;-48
2022/03/27 08:32:09;;;;;;;24.30;13.32;;;;;;;9.73;100.00;103205.78;5011640;28;20105;-48
2022/03/27 08:34:36;;;;;;;25.13;13.50;;;;;;;9.77;100.00;103210.81;5002060;28;20777;-43
2022/03/27 08:37:03;;;;;;;22.95;13.48;;;;;;;9.83;100.00;103215.78;5006190;28;20200;-48
2022/03/27 08:39:29;;;;;;;26.45;13.70;;;;;;;9.97;100.00;103220.22;4995723;28;20063;-51
2022/03/27 08:41:56;;;;;;;22.80;13.25;;;;;;;10.13;99.18;103221.91;5008537;28;20125;-48
2022/03/27 08:44:24;;;;;;;23.02;13.32;;;;;;;10.24;97.40;103220.25;5004425;28;20021;-47
2022/03/27 08:46:51;;;;;;;23.90;12.75;;;;;;;10.34;96.06;103217.88;5000153;28;20029;-44
2022/03/27 08:49:25;;;;;;;21.02;12.63;;;;;;;10.49;97.11;103216.00;5004108;28;20068;-44
2022/03/27 08:52:02;;;;;;;23.60;13.02;;;;;;;10.49;94.05;103225.81;4991470;28;20022;-45
2022/03/27 08:54:52;;;;;;;26.48;14.07;;;;;;;10.43;96.07;103224.41;4999777;28;20024;-45
2022/03/27 08:57:29;;;;;;;22.48;13.35;;;;;;;10.27;95.44;103217.38;5022313;28;20026;-45
2022/03/27 08:59:57;;;;;;;24.75;14.23;;;;;;;10.21;96.09;103224.94;5001803;28;20396;-45
2022/03/27 09:02:24;;;;;;;25.35;13.65;;;;;;;10.25;96.46;103221.97;5007687;28;20025;-45
2022/03/27 09:04:59;;;;;;;24.30;14.68;;;;;;;10.40;95.32;103225.50;5011660;28;20421;-45
2022/03/27 09:07:30;;;;;;;26.45;13.32;;;;;;;10.50;92.84;103216.84;5011496;28;20814;-46
2022/03/27 09:10:00;;;;;;;23.58;13.90;;;;;;;10.57;93.44;103228.84;5011073;28;20048;-48
2022/03/27 09:12:25;;;;;;;23.75;13.57;;;;;;;10.69;92.79;103224.47;5009708;28;20195;-44
2022/03/27 09:14:51;;;;;;;21.73;13.70;;;;;;;10.74;91.80;103223.25;5011839;28;20100;-44
2022/03/27 09:17:17;;;;;;;26.20;14.50;;;;;;;10.78;91.36;103218.53;5006236;28;20060;-47
2022/03/27 09:19:47;;;;;;;24.45;14.10;;;;;;;10.78;92.91;103223.88;5000286;28;20034;-48
2022/03/27 09:22:18;;;;;;;24.48;14.70;;;;;;;10.71;92.19;103222.56;5005667;28;20523;-49
2022/03/27 09:24:56;;;;;;;24.98;13.98;;;;;;;10.59;92.00;103216.22;5009709;28;20385;-47
2022/03/27 09:27:35;;;;;;;22.48;13.95;;;;;;;10.83;94.10;103216.41;5001703;28;20120;-46
2022/03/27 09:30:06;;;;;;;20.90;13.60;;;;;;;11.11;93.32;103209.16;5007033;28;20472;-45
2022/03/27 09:32:41;;;;;;;22.27;13.68;;;;;;;11.33;91.07;103213.84;4999851;28;20095;-53
2022/03/27 09:35:09;;;;;;;26.33;13.80;;;;;;;11.50;89.78;103213.50;5015521;28;20236;-49
2022/03/27 09:37:37;;;;;;;23.35;13.45;;;;;;;11.77;88.75;103212.50;5014124;28;20499;-48
2022/03/27 09:40:04;;;;;;;22.50;13.50;;;;;;;12.07;86.63;103204.09;5015568;28;20112;-47
2022/03/27 09:42:30;;;;;;;22.58;13.45;;;;;;;12.23;84.32;103203.81;5014293;28;20029;-45
2022/03/27 09:45:13;;;;;;;18.85;13.18;;;;;;;12.28;83.59;103196.28;4994900;28;20066;-46
2022/03/27 09:47:39;;;;;;;23.23;12.80;;;;;;;12.35;84.10;103195.84;5008583;28;20040;-48
2022/03/27 09:50:06;;;;;;;19.00;12.35;;;;;;;12.36;80.53;103192.19;5005174;28;20099;-46
2022/03/27 09:52:33;;;;;;;20.75;12.65;;;;;;;12.45;81.50;103195.00;5010420;28;20453;-47
2022/03/27 09:55:00;;;;;;;19.88;12.23;;;;;;;12.66;78.81;103187.19;5008948;28;20024;-44
2022/03/27 09:57:28;;;;;;;19.77;13.23;;;;;;;12.78;77.68;103182.72;4996640;28;20026;-48
2022/03/27 09:59:56;;;;;;;18.02;12.70;;;;;;;13.03;79.32;103179.00;4998849;28;20025;-48
2022/03/27 10:02:31;;;;;;;20.05;13.05;;;;;;;13.31;77.85;103184.00;5005714;28;20041;-44
2022/03/27 10:05:14;;;;;;;20.15;13.05;;;;;;;13.48;76.15;103188.91;5000752;28;20187;-48
2022/03/27 10:07:52;;;;;;;21.92;13.27;;;;;;;13.67;75.46;103180.22;5015773;28;20124;-49
2022/03/27 10:10:19;;;;;;;20.30;13.40;;;;;;;13.68;75.21;103175.69;5003754;28;20025;-47
2022/03/27 10:12:47;;;;;;;18.80;13.02;;;;;;;13.81;73.59;103179.09;4996876;28;20089;-46
2022/03/27 10:15:19;;;;;;;20.23;12.73;;;;;;;14.02;74.00;103171.13;4996248;28;20249;-44
2022/03/27 10:17:48;;;;;;;20.90;13.02;;;;;;;14.24;71.81;103177.38;4996346;28;20033;-48
2022/03/27 10:20:16;;;;;;;19.83;13.40;;;;;;;14.29;71.72;103176.03;4996555;28;20190;-46
2022/03/27 10:22:47;;;;;;;20.50;13.45;;;;;;;14.25;71.11;103165.66;5000907;28;20021;-45
2022/03/27 10:25:16;;;;;;;19.88;12.55;;;;;;;14.46;71.40;103163.88;5000246;28;20189;-45
2022/03/27 10:27:43;;;;;;;20.80;13.02;;;;;;;14.59;71.33;103158.31;5015472;28;20100;-47
2022/03/27 10:30:10;;;;;;;19.67;11.90;;;;;;;14.63;66.40;103158.91;5012332;28;20037;-49
2022/03/27 10:32:36;;;;;;;19.65;12.90;;;;;;;14.57;66.80;103154.88;4995074;28;20022;-48
2022/03/27 10:35:24;;;;;;;17.17;12.05;;;;;;;14.60;67.92;103159.19;5000315;28;20411;-44
2022/03/27 10:38:22;;;;;;;16.83;11.65;;;;;;;14.70;69.50;103152.88;5010847;28;20591;-45
2022/03/27 10:41:13;;;;;;;18.10;11.00;;;;;;;14.91;67.50;103152.00;5014046;28;20022;-47
2022/03/27 10:44:05;;;;;;;16.70;10.45;;;;;;;14.95;66.48;103144.53;5003735;28;20528;-46
2022/03/27 10:46:31;;;;;;;16.55;11.57;;;;;;;15.06;64.84;103150.66;4994588;28;20033;-48
2022/03/27 10:49:12;;;;;;;17.52;11.13;;;;;;;15.33;65.90;103145.69;4995383;28;20625;-47
2022/03/27 10:51:40;;;;;;;16.98;11.98;;;;;;;15.38;62.50;103129.97;4994654;28;20029;-47
2022/03/27 10:54:23;;;;;;;17.05;11.70;;;;;;;15.57;64.64;103134.56;5010919;28;20013;-48
2022/03/27 10:56:51;;;;;;;15.73;10.82;;;;;;;15.67;60.57;103133.59;5006282;28;20506;-47
2022/03/27 10:59:22;;;;;;;17.02;10.75;;;;;;;15.60;60.64;103139.69;4994890;28;20109;-44
2022/03/27 11:01:56;;;;;;;18.17;12.32;;;;;;;15.62;61.62;103130.47;4994363;28;20034;-45
2022/03/27 11:04:25;;;;;;;15.40;10.88;;;;;;;15.70;61.14;103126.22;4995273;28;20038;-45
2022/03/27 11:06:52;;;;;;;18.90;10.98;;;;;;;15.88;60.01;103132.66;4992317;28;20034;-49
2022/03/27 11:09:39;;;;;;;17.63;10.43;;;;;;;16.06;59.09;103130.13;4994714;28;20029;-48
2022/03/27 11:12:22;;;;;;;13.65;9.85;;;;;;;15.95;60.02;103130.25;5013647;28;20025;-46
2022/03/27 11:14:50;;;;;;;16.90;10.48;;;;;;;15.96;58.48;103124.72;5013505;28;20189;-48